TimePST,TemperatureF,Dew PointF,Humidity,Sea Level PressureIn,VisibilityMPH,Wind Direction,Wind SpeedMPH,Gust SpeedMPH,PrecipitationIn,Events,Conditions,WindDirDegrees,DateUTC
12:46 AM,41.0,39.2,93,30.17,10.0,Calm,Calm,-,0.00,Rain,Light Rain,0,2012-12-29 08:46:00
12:53 AM,41.0,39.0,93,30.18,10.0,Calm,Calm,-,0.00,Rain,Light Rain,0,2012-12-29 08:53:00
1:53 AM,41.0,39.0,93,30.17,10.0,Calm,Calm,-,0.00,Rain,Light Rain,0,2012-12-29 09:53:00
2:53 AM,39.9,39.0,97,30.18,10.0,Calm,Calm,-,0.00,,Overcast,0,2012-12-29 10:53:00
3:03 AM,39.2,39.2,100,30.18,10.0,Calm,Calm,-,N/A,,Overcast,0,2012-12-29 11:03:00
3:28 AM,41.0,39.2,93,30.18,10.0,Calm,Calm,-,N/A,,Overcast,0,2012-12-29 11:28:00
3:42 AM,41.0,39.2,93,30.18,10.0,Calm,Calm,-,N/A,,Overcast,0,2012-12-29 11:42:00
3:51 AM,41.0,39.2,93,30.18,10.0,Calm,Calm,-,0.00,Rain,Light Rain,0,2012-12-29 11:51:00
3:53 AM,41.0,39.0,93,30.18,10.0,Calm,Calm,-,0.00,Rain,Light Rain,0,2012-12-29 11:53:00
4:07 AM,41.0,39.2,93,30.18,10.0,Calm,Calm,-,0.00,Rain,Light Rain,0,2012-12-29 12:07:00
4:44 AM,41.0,37.4,87,30.17,10.0,Calm,Calm,-,0.00,,Overcast,0,2012-12-29 12:44:00
4:53 AM,41.0,37.9,89,30.18,10.0,ESE,3.5,-,0.00,,Overcast,110,2012-12-29 12:53:00
5:53 AM,41.0,37.9,89,30.18,7.0,Calm,Calm,-,0.00,Rain,Light Rain,0,2012-12-29 13:53:00
6:11 AM,39.2,37.4,93,30.18,9.0,Calm,Calm,-,0.00,Rain,Light Rain,0,2012-12-29 14:11:00
6:53 AM,39.9,37.9,93,30.17,9.0,ESE,4.6,-,0.00,Rain,Light Rain,120,2012-12-29 14:53:00
7:53 AM,39.9,37.0,89,30.17,10.0,SE,5.8,-,0.00,,Overcast,130,2012-12-29 15:53:00
8:53 AM,39.9,37.9,93,30.19,6.0,Calm,Calm,-,0.02,Rain,Light Rain,0,2012-12-29 16:53:00
9:53 AM,39.9,37.9,93,30.19,8.0,Calm,Calm,-,0.00,,Overcast,0,2012-12-29 17:53:00
10:32 AM,39.2,39.2,100,30.19,10.0,Calm,Calm,-,0.00,,Overcast,0,2012-12-29 18:32:00
10:53 AM,41.0,39.0,93,30.19,10.0,SE,3.5,-,0.00,,Overcast,130,2012-12-29 18:53:00
11:53 AM,39.9,37.9,93,30.19,7.0,North,3.5,-,N/A,,Overcast,10,2012-12-29 19:53:00
12:11 PM,39.2,39.2,100,30.18,1.8,Calm,Calm,-,N/A,,Overcast,0,2012-12-29 20:11:00
12:29 PM,39.2,39.2,100,30.17,2.0,ENE,3.5,-,N/A,,Overcast,70,2012-12-29 20:29:00
12:44 PM,39.2,39.2,100,30.17,2.5,East,3.5,-,N/A,,Overcast,90,2012-12-29 20:44:00
12:53 PM,39.9,39.0,97,30.17,3.0,ESE,5.8,-,0.00,Rain,Light Rain,110,2012-12-29 20:53:00
1:13 PM,39.2,39.2,100,30.16,5.0,ESE,3.5,-,0.00,,Overcast,110,2012-12-29 21:13:00
1:53 PM,39.9,37.9,93,30.17,5.0,Calm,Calm,-,0.00,,Overcast,0,2012-12-29 21:53:00
2:41 PM,39.2,39.2,100,30.17,1.8,Calm,Calm,-,N/A,,Overcast,0,2012-12-29 22:41:00
3:14 PM,39.2,39.2,100,30.17,2.5,Calm,Calm,-,0.00,,Overcast,0,2012-12-29 23:14:00
3:26 PM,39.2,39.2,100,30.17,3.0,Calm,Calm,-,0.00,,Overcast,0,2012-12-29 23:26:00
3:38 PM,41.0,39.2,93,30.17,3.0,Calm,Calm,-,0.00,,Overcast,0,2012-12-29 23:38:00
3:53 PM,39.9,39.0,97,30.18,9.0,Calm,Calm,-,0.00,,Overcast,0,2012-12-29 23:53:00
4:05 PM,39.2,39.2,100,30.18,10.0,Calm,Calm,-,N/A,,Overcast,0,2012-12-30 00:05:00
4:53 PM,39.9,39.0,97,30.18,10.0,Calm,Calm,-,N/A,,Overcast,0,2012-12-30 00:53:00
5:08 PM,39.2,39.2,100,30.17,9.0,Calm,Calm,-,N/A,,Overcast,0,2012-12-30 01:08:00
5:33 PM,41.0,39.2,93,30.18,6.0,NE,3.5,-,0.00,Rain,Light Rain,40,2012-12-30 01:33:00
5:40 PM,39.2,39.2,100,30.18,5.0,Variable,3.5,-,0.00,Rain,Light Rain,0,2012-12-30 01:40:00
5:53 PM,39.9,39.0,97,30.19,9.0,Calm,Calm,-,0.00,,Overcast,0,2012-12-30 01:53:00
6:02 PM,39.2,39.2,100,30.19,8.0,Calm,Calm,-,N/A,,Overcast,0,2012-12-30 02:02:00
6:28 PM,41.0,39.2,93,30.19,10.0,NE,3.5,-,N/A,,Overcast,40,2012-12-30 02:28:00
6:39 PM,39.2,37.4,93,30.19,10.0,NNE,4.6,-,N/A,,Overcast,20,2012-12-30 02:39:00
6:53 PM,39.9,37.9,93,30.20,10.0,NNE,5.8,-,N/A,,Overcast,20,2012-12-30 02:53:00
7:53 PM,39.9,37.9,93,30.21,10.0,Calm,Calm,-,N/A,,Overcast,0,2012-12-30 03:53:00
8:53 PM,39.9,37.9,93,30.22,8.0,Calm,Calm,-,N/A,,Overcast,0,2012-12-30 04:53:00
9:11 PM,39.2,37.4,93,30.22,8.0,Calm,Calm,-,N/A,,Overcast,0,2012-12-30 05:11:00
9:33 PM,39.2,37.4,93,30.23,7.0,Calm,Calm,-,N/A,,Overcast,0,2012-12-30 05:33:00
10:27 PM,37.4,35.6,93,30.24,10.0,Calm,Calm,-,N/A,,Scattered Clouds,0,2012-12-30 06:27:00
10:53 PM,36.0,35.1,97,30.25,8.0,Calm,Calm,-,N/A,,Partly Cloudy,0,2012-12-30 06:53:00
11:07 PM,35.6,35.6,100,30.24,6.0,Calm,Calm,-,N/A,,Mostly Cloudy,0,2012-12-30 07:07:00
11:53 PM,35.1,34.0,96,30.26,5.0,Calm,Calm,-,N/A,,Mostly Cloudy,0,2012-12-30 07:53:00